Location:  
MeteoStar


Sort by weather type Sort by elevation Sort by visibility Sort from west to east north Sort from north to south Alphabetically Sort from strongest wind speed Sort from lowest to highest pressure Sort from highest to lowest dew point temperature Sort coolest temperatures to warmest Sort warm temperatures to coolest
 Metric

Current Observations for United Kingdom sorted by weather type

Bingley21:00ZShowers57 5471011.5SSW 12 57859
Keswick21:00ZRain59 572.251009.2SSE 6 59265
Eskdalemuir21:00ZRain58 5721008.0S 14 58793
Aviemore21:00ZRain51 511.621007.5ENE 1 51721
Altnaharra21:00ZRain50 4981008.9NNW 3 50265
Aultbea21:00ZRain51 4881009.2N 5 4936
Loch Glascanoch21:00ZRain49 4891009.0WNW 9 45869
Lossiemouth21:00ZRain53 521.51008.0NNE 11 4942
Kinloss21:00ZRain53 522.251008NE 9 5022
Tain Range21:00ZRain52 5231008.4NNW 5 5113
Inverness / Dalcross21:20ZRain52 522.51008.1N 7 5029
Wick21:00ZRain51 5181008N 9 48127
Kirkwall Airport21:00ZRain52 5171008.2NNW 8 4968
Leeds And Bradford21:20ZRain57 55141012.1S 8 57682
Glenanne21:00ZLight Rain51 5061009.5N 4 50528
Portglenone21:00ZLight Rain50 50111009.2N 2 50209
Lough Fea21:00ZLight Rain49 48201009.7NNW 3 49738
Tulloch Bridge21:00ZLight Rain51 5041008.5WNW 6 49777
Mildenhall Royal Air Force Base21:17ZLight Rain55 55121015.9S 6 5532
Stornoway21:00ZLight Rain51 48141009.2N 4 5029
Scatsa / Shetland Island21:20ZLight Rain54 5241008.1N 2 5472
Prestwick Airport21:20ZLight Rain54 5251008.1NW 13 5065
Glasgow Airport21:20ZLight Rain54 5231007.1W 10 5126
East Midlands21:20ZLight Rain57 5491014.1S 13 57308
Bristol / Lulsgate 21:20ZLight Rain55 5571014.1S 9 55620
Belfast / Aldergrove Airport21:00ZLight Rain51 50151009.7NNW 4 50265
Benson21:00ZShowers in Vicinity57 5391016S 8 57206
Yeovilton21:00ZShowers in Vicinity58 5671015.5S 10 5875
Ballypatrick Forest21:00ZRain/Drizzle50 50191009.7NW 5 48511
Prestwick Rnas21:00ZRain/Drizzle54 5331007.5WNW 8 5285
Isle Of Man / Ronaldsway Airport21:00ZRain/Drizzle56 5491009NW 10 5655
Exeter Airport21:50ZLight Drizzle57 5561014.1S 11 5798
Lerwick21:00ZLight Drizzle54 540.121008SE 4 53269
Camborne21:00ZMist58 581.871012.5S 18 Gusting to 28 58285
Sennybridge21:00ZMist55 5461013.0S 9 551007
Aberporth21:00ZMist59 5841010.7S 17 Gusting to 26 59436
Scilly; Saint MaryS21:00ZMist59 5931011.2S 24 Gusting to 31 59101
Culdrose21:00ZMist58 571.871013.0S 18 Gusting to 28 58255
Waddington21:00ZCloudy59 51201014S 11 59223
Coningsby Royal Air Force Base21:00ZCloudy56 51201014.4S 7 5622
Middle Wallop21:00ZCloudy58 53151016.4S 8 58298
Odiham21:00ZCloudy57 51151016.5S 8 57403
Brize Norton21:00ZCloudy58 52201015.5SSW 8 58288
Fairford Royal Air Force Base21:41ZCloudy57 54201015.0SSW 8 57285
Sumburgh Cape 21:20ZCloudy55 5441007.1ESE 2 5516
Luton Airport 21:20ZCloudy55 5271016.1S 7 55524
Cardiff-Wales Airport21:20ZCloudy59 5571014.1S 7 59219
Edinburgh Airport21:20ZMostly Cloudy61 5731006.1S 7 61134
London City Airport21:20ZMostly Cloudy57 52301017.1S 4 5716
Southampton / Weather Centre21:20ZMostly Cloudy59 52151016.1S 6 5929
Liverpool Airport 21:20ZMostly Cloudy59 5771011.1SE 8 5985
Manchester Airport21:20ZMostly Cloudy57 55151012.1S 6 57226
Birmingham / Airport21:20ZMostly Cloudy57 54151014.1S 9 57324
Wattisham21:00ZPartly Cloudy55 50201016.9SSW 7 55285
London / Gatwick Airport21:20ZPartly Cloudy55 52301017.1N 2 55203
Guernsey Airport21:00ZPartly Cloudy60 52251016.9S 16 60334
Castlederg21:00ZClear50 49111010.0W 1 50167
Isle Of Portland21:00ZClear58 572.251016.5SW 14 58173
Dunkeswell Aerodrome21:00ZClear55 550.621015.2S 15 55826
Cardinham21:00ZClear56 560.061013.5N 56656
Pershore21:00ZClear58 5581015.0S 10 58104
Capel Curig21:00ZClear59 57301010.9SW 22 Gusting to 33 59708
Dundrennan21:00ZClear57 570.371007.5SW 10 Gusting to 30 57374
Strathallan21:00ZClear57 5751006.4E 2 57114
Inverbervie21:00ZClear55 N/A2.251008S 12 439
Aboyne21:00ZClear57 5651007.0SSE 5 57459
Baltasound21:00ZClear54 5371008.7SE 12 5049
Stansted Airport21:20ZClear54 521.51017.1S 7 52347
Norwich Weather Centre21:20ZClear57 521.51016.1S 6 5745
Boulmer21:00ZClear57 56151009.4SE 6 5775
Leuchars21:00ZClear58 56131007.0SSE 8 5839
Tiree21:00ZClear51 50201009NNE 4 5039
Benbecula21:20ZClear50 4651009.1N 3 5019
Aberdeen / Dyce21:00ZClear57 56141007.7S 11 57213
Valley21:00ZClear60 5971009.2S 20 Gusting to 26 603
Newcastle 21:20ZClear59 5591009.1S 6 59265
Humberside21:20ZClear59 54181013.1S 14 59101
Lydd Airport 21:20ZClear59 54181018.1SSW 9 599
Jersey Airport21:00ZClear59 53301017.5S 15 59275
Plymouth21:00ZClear58 5741014.7S 22 Gusting to 32 58164

Atlantic
Tropical Watch